Terminal Aerodrome Forecast
Issued by NWS

Current Version | Previous Version | Graphics & Text | Print | Product List | Glossary On
Versions: 1 2 3 4 5 6 7 8 9 10 11 12 13 14 15 16 17 18 19 20 21 22 23 24 25 26
000
FTUS41 KPBZ 211500 AAB
TAFMGW
TAF AMD
KMGW 211511Z 2115/2212 19004KT P6SM BKN025 BKN070
     FM211700 21008G15KT P6SM SCT035 BKN050
     FM212000 25010G15KT P6SM SCT035 BKN050
      TEMPO 2122/2124 27015G25KT -TSRA BKN035CB
     FM220100 30010KT P6SM BKN050=

USA.gov is the U.S. government's official web portal to all federal, state and local government web resources and services.